Time;durP1;ratioP1;P1;durP2;ratioP2;P2;SDS_P1;SDS_P2;PMS_P1;PMS_P2;Temp;Humidity;BMP_temperature;BMP_pressure;BME280_temperature;BME280_humidity;BME280_pressure;Samples;Min_cycle;Max_cycle;Signal;HPM_P1;HPM_P2
2023/01/28 04:02:34;;;;;;;2.78;1.85;;;14.10;48.30;;;;;;4891601;28;45134;-60
2023/01/28 04:04:59;;;;;;;4.55;2.30;;;14.00;48.30;;;;;;4895496;28;45526;-59
2023/01/28 04:07:25;;;;;;;3.70;2.17;;;14.00;48.30;;;;;;4870888;29;45491;-59
2023/01/28 04:09:50;;;;;;;3.25;2.30;;;14.00;48.30;;;;;;4901137;28;44731;-60
2023/01/28 04:12:17;;;;;;;3.58;2.30;;;14.00;48.30;;;;;;4883107;29;45497;-62
2023/01/28 04:14:43;;;;;;;3.78;2.60;;;14.00;48.30;;;;;;4898746;28;45422;-60
2023/01/28 04:17:09;;;;;;;3.90;2.53;;;14.00;48.30;;;;;;4894646;28;46039;-60
2023/01/28 04:19:36;;;;;;;4.00;2.60;;;14.00;48.30;;;;;;4890656;28;46348;-61
2023/01/28 04:22:06;;;;;;;4.10;2.38;;;14.00;48.30;;;;;;4896785;28;45426;-58
2023/01/28 04:24:32;;;;;;;4.15;2.60;;;14.00;48.40;;;;;;4896649;28;45499;-60
2023/01/28 04:26:57;;;;;;;3.90;2.40;;;14.00;48.40;;;;;;4879989;29;45919;-60
2023/01/28 04:29:23;;;;;;;4.20;2.47;;;14.00;48.30;;;;;;4895991;28;45162;-61
2023/01/28 04:31:49;;;;;;;3.72;2.25;;;13.90;48.30;;;;;;4889009;28;45989;-61
2023/01/28 04:34:16;;;;;;;3.72;2.28;;;13.90;48.30;;;;;;4881211;29;45245;-61
2023/01/28 04:36:41;;;;;;;3.75;2.47;;;14.00;48.30;;;;;;4896410;28;46177;-61
2023/01/28 04:39:07;;;;;;;3.38;2.17;;;13.90;48.30;;;;;;4898792;28;45352;-61
2023/01/28 04:41:32;;;;;;;3.60;2.42;;;13.90;48.40;;;;;;4899146;28;45286;-58
2023/01/28 04:43:58;;;;;;;3.17;2.20;;;13.90;48.40;;;;;;4900871;28;45300;-61
2023/01/28 04:46:23;;;;;;;3.03;2.08;;;13.90;48.40;;;;;;4886356;29;46037;-58
2023/01/28 04:48:49;;;;;;;3.60;2.33;;;13.90;48.40;;;;;;4883568;28;45584;-59
2023/01/28 04:51:14;;;;;;;3.08;1.92;;;13.90;48.40;;;;;;4899375;28;45625;-60
2023/01/28 04:53:40;;;;;;;4.38;2.60;;;13.90;48.40;;;;;;4896351;28;45483;-58
2023/01/28 04:56:06;;;;;;;3.90;2.47;;;13.90;48.30;;;;;;4893745;28;45942;-63
2023/01/28 04:58:31;;;;;;;4.00;2.60;;;13.90;48.40;;;;;;4883226;28;44666;-58
2023/01/28 05:00:57;;;;;;;3.80;2.30;;;13.80;48.40;;;;;;4898431;28;45378;-61
2023/01/28 05:03:23;;;;;;;3.22;2.00;;;13.80;48.40;;;;;;4894583;28;45464;-60
2023/01/28 05:05:49;;;;;;;4.95;2.58;;;13.80;48.40;;;;;;4897381;28;46472;-57
2023/01/28 05:08:14;;;;;;;2.83;1.77;;;13.90;48.40;;;;;;4900827;28;44985;-60
2023/01/28 05:10:40;;;;;;;4.00;2.45;;;13.80;48.30;;;;;;4898780;28;44775;-59
2023/01/28 05:13:05;;;;;;;4.00;2.38;;;13.80;48.40;;;;;;4896810;28;45384;-58
2023/01/28 05:15:31;;;;;;;3.50;2.20;;;13.80;48.40;;;;;;4897607;28;46972;-65
2023/01/28 05:17:56;;;;;;;3.13;2.22;;;13.80;48.40;;;;;;4879835;29;44686;-61
2023/01/28 05:20:22;;;;;;;3.25;2.08;;;13.80;48.40;;;;;;4901678;28;45249;-59
2023/01/28 05:22:47;;;;;;;3.80;2.25;;;13.80;48.40;;;;;;4884219;29;45369;-60
2023/01/28 05:25:13;;;;;;;3.78;2.55;;;13.80;48.40;;;;;;4882211;29;46317;-62
2023/01/28 05:27:38;;;;;;;2.88;2.08;;;13.80;48.40;;;;;;4898500;28;45452;-62
2023/01/28 05:30:05;;;;;;;3.50;2.25;;;13.80;48.40;;;;;;4883692;29;45445;-61
2023/01/28 05:32:31;;;;;;;3.33;2.20;;;13.80;49.00;;;;;;4899728;28;44739;-59
2023/01/28 05:34:57;;;;;;;3.38;2.30;;;13.80;48.50;;;;;;4865230;29;47347;-61
2023/01/28 05:37:22;;;;;;;3.42;2.45;;;13.70;48.40;;;;;;4898611;28;45544;-59
2023/01/28 05:39:48;;;;;;;3.90;2.33;;;13.70;48.40;;;;;;4900088;28;45048;-61
2023/01/28 05:42:14;;;;;;;3.03;2.20;;;13.70;48.40;;;;;;4886950;29;44829;-60
2023/01/28 05:44:40;;;;;;;3.20;2.25;;;13.70;48.40;;;;;;4897215;28;45556;-61
2023/01/28 05:47:05;;;;;;;4.13;2.55;;;13.70;48.40;;;;;;4899025;28;44912;-61
2023/01/28 05:49:31;;;;;;;3.45;2.10;;;13.70;48.40;;;;;;4894746;28;45304;-64
2023/01/28 05:51:57;;;;;;;3.78;2.60;;;13.70;48.60;;;;;;4854885;29;45002;-61
2023/01/28 05:54:22;;;;;;;2.80;2.10;;;13.70;48.50;;;;;;4878445;28;45670;-61
2023/01/28 05:56:48;;;;;;;3.20;2.38;;;13.70;48.50;;;;;;4896108;28;45326;-61
2023/01/28 05:59:14;;;;;;;3.10;2.10;;;13.70;48.50;;;;;;4898351;28;45514;-62
2023/01/28 06:01:40;;;;;;;3.78;2.20;;;13.70;49.10;;;;;;4894907;28;45335;-62
2023/01/28 06:04:05;;;;;;;3.50;2.20;;;13.70;48.60;;;;;;4898935;28;44938;-59
2023/01/28 06:06:31;;;;;;;3.15;2.35;;;13.60;48.50;;;;;;4894825;28;45715;-61
2023/01/28 06:08:56;;;;;;;2.78;2.10;;;13.70;48.50;;;;;;4898248;28;44750;-62
2023/01/28 06:11:22;;;;;;;3.22;2.10;;;13.60;48.50;;;;;;4894876;28;44694;-60
2023/01/28 06:13:47;;;;;;;2.72;1.98;;;13.60;48.50;;;;;;4891653;28;45556;-61
2023/01/28 06:16:14;;;;;;;3.20;2.55;;;13.60;48.50;;;;;;4895690;28;44993;-60
2023/01/28 06:18:40;;;;;;;2.47;2.13;;;13.60;48.60;;;;;;4895518;28;45570;-60
2023/01/28 06:21:06;;;;;;;3.00;2.05;;;13.60;48.50;;;;;;4893411;28;45454;-62
2023/01/28 06:23:31;;;;;;;2.88;2.22;;;13.60;48.50;;;;;;4896961;28;46023;-59
2023/01/28 06:25:57;;;;;;;2.65;2.15;;;13.60;48.50;;;;;;4893843;28;45392;-61
2023/01/28 06:28:23;;;;;;;3.30;2.20;;;13.60;48.60;;;;;;4882966;29;44818;-61
2023/01/28 06:30:49;;;;;;;3.05;2.05;;;13.60;48.50;;;;;;4879990;28;45287;-61
2023/01/28 06:33:14;;;;;;;3.42;2.20;;;13.60;48.50;;;;;;4894863;28;46295;-61
2023/01/28 06:35:40;;;;;;;3.72;2.20;;;13.60;48.50;;;;;;4890159;28;45276;-61
2023/01/28 06:38:06;;;;;;;3.28;2.05;;;13.60;48.60;;;;;;4895896;28;46748;-61
2023/01/28 06:40:31;;;;;;;3.00;2.15;;;13.50;48.50;;;;;;4897154;28;45554;-58
2023/01/28 06:42:57;;;;;;;3.20;1.85;;;13.50;48.60;;;;;;4878058;28;46065;-59
2023/01/28 06:45:22;;;;;;;3.22;2.38;;;13.50;48.60;;;;;;4895452;28;45377;-60
2023/01/28 06:47:48;;;;;;;3.85;2.60;;;13.50;48.60;;;;;;4893495;28;45323;-57
2023/01/28 06:50:13;;;;;;;3.55;2.20;;;13.50;48.60;;;;;;4880059;28;45139;-61
2023/01/28 06:52:40;;;;;;;4.13;2.25;;;13.50;48.60;;;;;;4892151;28;45234;-60
2023/01/28 06:55:06;;;;;;;3.83;2.58;;;13.50;48.60;;;;;;4866505;29;45262;-59
2023/01/28 06:57:31;;;;;;;3.40;2.10;;;13.50;48.60;;;;;;4878498;29;45290;-58
2023/01/28 06:59:57;;;;;;;2.35;2.00;;;13.50;48.60;;;;;;4896937;28;44987;-57
2023/01/28 07:02:22;;;;;;;3.00;2.10;;;13.50;48.60;;;;;;4893940;28;45303;-57
2023/01/28 07:04:48;;;;;;;3.47;2.20;;;13.50;48.60;;;;;;4894887;28;45545;-59
2023/01/28 07:07:13;;;;;;;3.10;2.10;;;13.50;48.70;;;;;;4898738;28;45368;-60
2023/01/28 07:09:39;;;;;;;3.05;2.10;;;13.50;48.70;;;;;;4898230;28;44738;-60
2023/01/28 07:12:05;;;;;;;3.35;2.17;;;13.50;48.60;;;;;;4895653;28;46014;-60
2023/01/28 07:14:31;;;;;;;2.75;1.90;;;13.50;48.60;;;;;;4876552;29;45165;-57
2023/01/28 07:16:56;;;;;;;3.20;2.10;;;13.50;48.60;;;;;;4892743;28;45243;-56
2023/01/28 07:19:22;;;;;;;3.50;2.25;;;13.40;48.60;;;;;;4897031;28;45380;-59
2023/01/28 07:21:47;;;;;;;3.10;2.03;;;13.50;48.60;;;;;;4896131;28;45325;-61
2023/01/28 07:24:13;;;;;;;3.35;2.13;;;13.40;48.60;;;;;;4894143;28;45723;-58
2023/01/28 07:26:38;;;;;;;4.03;2.45;;;13.40;48.50;;;;;;4892951;28;45277;-61
2023/01/28 07:29:04;;;;;;;3.38;2.25;;;13.40;48.60;;;;;;4895328;28;45138;-62
2023/01/28 07:31:29;;;;;;;4.38;2.63;;;13.40;48.60;;;;;;4880928;29;45656;-61
2023/01/28 07:33:55;;;;;;;3.25;2.10;;;13.40;48.60;;;;;;4891525;28;44662;-60
2023/01/28 07:36:20;;;;;;;2.88;2.28;;;13.40;48.60;;;;;;4892921;28;45281;-61
2023/01/28 07:38:46;;;;;;;2.75;1.77;;;13.40;48.60;;;;;;4895863;28;45500;-61
2023/01/28 07:41:11;;;;;;;2.63;2.10;;;13.40;48.70;;;;;;4896503;28;44858;-60
2023/01/28 07:43:37;;;;;;;3.20;2.15;;;13.40;48.70;;;;;;4894608;28;45089;-61
2023/01/28 07:46:03;;;;;;;2.75;2.15;;;13.40;48.60;;;;;;4894695;28;45276;-61
2023/01/28 07:48:28;;;;;;;2.53;1.83;;;13.40;48.60;;;;;;4876180;29;45537;-61
2023/01/28 07:50:57;;;;;;;2.80;2.00;;;13.30;48.60;;;;;;4891427;28;46168;-62
2023/01/28 07:53:23;;;;;;;3.40;2.15;;;13.40;48.70;;;;;;4873624;29;45008;-63
2023/01/28 07:55:48;;;;;;;3.38;2.03;;;13.30;48.60;;;;;;4875115;29;45447;-62
2023/01/28 07:58:14;;;;;;;3.13;2.15;;;13.30;48.60;;;;;;4876545;28;45472;-62
2023/01/28 08:00:39;;;;;;;2.63;2.10;;;13.30;48.70;;;;;;4889737;28;45563;-60
2023/01/28 08:03:06;;;;;;;4.15;2.58;;;13.30;48.70;;;;;;4881503;28;45488;-60
2023/01/28 08:05:48;;;;;;;4.78;2.63;;;13.30;48.60;;;;;;4889078;28;45160;-58
2023/01/28 08:08:14;;;;;;;3.58;2.20;;;13.30;48.70;;;;;;4866471;29;45301;-61
2023/01/28 08:10:40;;;;;;;3.03;2.17;;;13.30;48.70;;;;;;4876848;28;46869;-61
2023/01/28 08:13:06;;;;;;;2.78;1.92;;;13.30;48.70;;;;;;4895812;28;44715;-60
2023/01/28 08:15:31;;;;;;;3.05;2.00;;;13.30;48.70;;;;;;4892260;28;45613;-59
2023/01/28 08:17:57;;;;;;;3.10;2.17;;;13.30;48.70;;;;;;4896013;28;45153;-61
2023/01/28 08:20:25;;;;;;;3.53;2.15;;;13.30;48.70;;;;;;4894385;28;46040;-60
2023/01/28 08:22:51;;;;;;;3.05;2.00;;;13.30;48.70;;;;;;4891883;28;45280;-61
2023/01/28 08:25:16;;;;;;;3.28;2.22;;;13.30;48.70;;;;;;4893660;28;45901;-60
2023/01/28 08:27:42;;;;;;;4.05;2.30;;;13.30;48.80;;;;;;4890878;28;45275;-61
2023/01/28 08:30:08;;;;;;;3.33;2.17;;;13.20;48.70;;;;;;4878987;28;46019;-60
2023/01/28 08:32:34;;;;;;;3.53;2.10;;;13.20;48.70;;;;;;4883144;29;45560;-61
2023/01/28 08:35:00;;;;;;;2.88;1.85;;;13.20;48.70;;;;;;4879171;29;45480;-61
2023/01/28 08:37:25;;;;;;;2.90;2.15;;;13.20;48.70;;;;;;4900050;28;44708;-61
2023/01/28 08:39:51;;;;;;;3.47;2.13;;;13.20;48.70;;;;;;4892337;28;45111;-64
2023/01/28 08:42:16;;;;;;;3.97;2.35;;;13.20;48.70;;;;;;4882022;28;45298;-60
2023/01/28 08:44:42;;;;;;;2.92;2.08;;;13.20;48.70;;;;;;4899774;28;44761;-61
2023/01/28 08:47:07;;;;;;;3.78;2.50;;;13.20;48.80;;;;;;4882817;29;45048;-58
2023/01/28 08:49:33;;;;;;;2.88;2.08;;;13.20;48.70;;;;;;4881703;29;48205;-61
2023/01/28 08:51:58;;;;;;;3.53;2.13;;;13.20;48.70;;;;;;4897268;28;45202;-58
2023/01/28 08:54:24;;;;;;;3.05;2.10;;;13.20;48.80;;;;;;4900856;28;45300;-61
2023/01/28 08:56:50;;;;;;;4.00;2.38;;;13.20;48.80;;;;;;4898432;28;45257;-58
2023/01/28 08:59:16;;;;;;;2.92;2.17;;;13.20;48.70;;;;;;4900233;28;45378;-61
2023/01/28 09:01:42;;;;;;;3.40;2.25;;;13.20;48.70;;;;;;4891662;28;45477;-61
2023/01/28 09:04:07;;;;;;;2.65;1.95;;;13.20;48.70;;;;;;4879736;29;45400;-64
2023/01/28 09:06:33;;;;;;;3.58;2.25;;;13.20;48.70;;;;;;4880834;29;44750;-62
2023/01/28 09:08:58;;;;;;;3.20;2.17;;;13.20;48.70;;;;;;4880975;29;47057;-63
2023/01/28 09:11:24;;;;;;;3.35;2.17;;;13.20;48.70;;;;;;4866335;29;45232;-61
2023/01/28 09:13:50;;;;;;;3.03;1.73;;;13.20;48.70;;;;;;4878971;29;45184;-58
2023/01/28 09:16:15;;;;;;;3.50;2.15;;;13.20;48.80;;;;;;4877655;29;44970;-62
2023/01/28 09:18:41;;;;;;;3.45;2.20;;;13.10;48.70;;;;;;4880999;29;46102;-59
2023/01/28 09:21:07;;;;;;;3.45;2.33;;;13.20;48.80;;;;;;4895408;28;45358;-61
2023/01/28 09:23:34;;;;;;;3.03;2.00;;;13.10;48.70;;;;;;4896093;28;45503;-58
2023/01/28 09:26:00;;;;;;;3.20;2.03;;;13.10;48.70;;;;;;4864326;29;46775;-62
2023/01/28 09:28:25;;;;;;;2.90;2.05;;;13.10;48.70;;;;;;4879859;29;45526;-63
2023/01/28 09:30:51;;;;;;;2.95;2.00;;;13.10;48.70;;;;;;4880598;29;45218;-64
2023/01/28 09:33:17;;;;;;;2.95;2.03;;;13.10;48.70;;;;;;4875758;29;45532;-59
2023/01/28 09:35:44;;;;;;;2.70;1.98;;;13.10;48.70;;;;;;4881816;29;45693;-64
2023/01/28 09:38:09;;;;;;;3.85;2.40;;;13.10;48.70;;;;;;4879803;29;46200;-64
2023/01/28 09:40:39;;;;;;;3.15;2.30;;;13.10;48.70;;;;;;4892863;28;45310;-60
2023/01/28 09:43:33;;;;;;;2.47;1.83;;;13.10;48.80;;;;;;4869506;29;45500;-56
2023/01/28 09:46:01;;;;;;;4.22;2.20;;;13.10;48.80;;;;;;4871426;29;44635;-59
2023/01/28 09:48:36;;;;;;;3.33;2.17;;;13.10;48.80;;;;;;4883302;28;46039;-59
2023/01/28 09:51:02;;;;;;;3.30;2.10;;;13.10;48.80;;;;;;4855653;29;45618;-62
2023/01/28 09:53:34;;;;;;;2.75;1.85;;;13.10;48.80;;;;;;4865557;29;44705;-60
2023/01/28 09:56:01;;;;;;;3.17;2.10;;;13.10;48.90;;;;;;4876962;29;45301;-61
2023/01/28 09:58:27;;;;;;;3.35;1.92;;;13.10;48.80;;;;;;4872259;29;46137;-56
2023/01/28 10:01:01;;;;;;;3.70;2.13;;;13.10;48.80;;;;;;4874536;29;45352;-59
2023/01/28 10:03:48;;;;;;;3.35;1.98;;;13.10;48.90;;;;;;4885026;29;44982;-59
2023/01/28 10:06:17;;;;;;;3.03;1.88;;;13.00;48.90;;;;;;4892140;28;45512;-59
2023/01/28 10:09:04;;;;;;;4.78;2.40;;;13.00;48.80;;;;;;4886992;28;45967;-60
2023/01/28 10:11:46;;;;;;;2.83;2.20;;;13.10;48.90;;;;;;4877415;29;45511;-61
2023/01/28 10:14:21;;;;;;;3.95;2.38;;;13.10;48.90;;;;;;4881035;29;44632;-59
2023/01/28 10:17:13;;;;;;;2.33;1.85;;;13.10;48.90;;;;;;4876144;29;44777;-62
2023/01/28 10:19:46;;;;;;;3.15;2.00;;;13.10;48.90;;;;;;4876829;29;47090;-59
2023/01/28 10:22:34;;;;;;;3.78;2.30;;;13.00;48.80;;;;;;4864939;29;44879;-58
2023/01/28 10:25:05;;;;;;;2.92;2.00;;;13.10;49.00;;;;;;4879010;29;46046;-58
2023/01/28 10:27:31;;;;;;;2.42;1.67;;;13.00;48.80;;;;;;4863983;29;45858;-59
2023/01/28 10:29:58;;;;;;;3.22;2.00;;;13.00;49.40;;;;;;4874319;29;46639;-62
2023/01/28 10:32:28;;;;;;;3.20;2.15;;;13.00;48.80;;;;;;4876048;29;45446;-58
2023/01/28 10:34:54;;;;;;;3.08;2.05;;;13.00;48.80;;;;;;4876448;29;45622;-61
2023/01/28 10:37:19;;;;;;;3.63;1.88;;;13.00;48.80;;;;;;4850747;29;45323;-64
2023/01/28 10:39:45;;;;;;;3.17;2.05;;;13.00;48.80;;;;;;4875637;29;47143;-62
2023/01/28 10:42:26;;;;;;;2.70;1.80;;;13.00;48.90;;;;;;4875984;29;46025;-61
2023/01/28 10:44:52;;;;;;;3.00;2.10;;;13.00;48.90;;;;;;4867369;29;45438;-61
2023/01/28 10:47:29;;;;;;;2.95;2.05;;;13.00;48.90;;;;;;4881746;29;45392;-61
2023/01/28 10:49:55;;;;;;;2.50;1.83;;;13.00;48.90;;;;;;4877272;29;46031;-58
2023/01/28 10:52:21;;;;;;;2.90;2.03;;;13.00;48.90;;;;;;4869713;29;45564;-57
2023/01/28 10:54:46;;;;;;;2.40;1.60;;;13.00;48.90;;;;;;4879409;29;45370;-64
2023/01/28 10:57:12;;;;;;;2.60;1.75;;;13.00;48.90;;;;;;4877094;29;44916;-62
2023/01/28 10:59:41;;;;;;;3.50;2.35;;;13.00;48.90;;;;;;4889572;28;46208;-61
2023/01/28 11:02:24;;;;;;;2.83;2.13;;;13.00;49.00;;;;;;4888144;28;45784;-60
2023/01/28 11:05:00;;;;;;;2.55;1.65;;;13.00;48.90;;;;;;4887121;28;45408;-60
2023/01/28 11:07:26;;;;;;;3.58;1.88;;;13.00;49.00;;;;;;4868981;29;45410;-61
2023/01/28 11:09:51;;;;;;;2.38;1.67;;;13.00;48.90;;;;;;4873962;29;46987;-63
2023/01/28 11:12:22;;;;;;;2.53;1.80;;;13.00;48.90;;;;;;4858686;29;46069;-61
2023/01/28 11:14:55;;;;;;;2.05;1.58;;;13.00;48.90;;;;;;4883527;28;44716;-64
2023/01/28 11:17:23;;;;;;;2.72;2.00;;;13.00;48.90;;;;;;4875224;29;45875;-61
2023/01/28 11:19:49;;;;;;;2.65;1.75;;;13.00;48.90;;;;;;4888503;28;45433;-61
2023/01/28 11:22:34;;;;;;;2.50;1.70;;;12.90;48.80;;;;;;4872360;29;45048;-59
2023/01/28 11:25:01;;;;;;;2.63;1.77;;;13.00;48.90;;;;;;4871842;29;45757;-60
2023/01/28 11:27:28;;;;;;;3.15;1.98;;;12.90;48.80;;;;;;4876921;29;45369;-62
2023/01/28 11:30:02;;;;;;;2.97;1.92;;;13.00;49.00;;;;;;4857505;29;44893;-61
2023/01/28 11:32:27;;;;;;;;;;;13.00;49.00;;;;;;4874232;29;45282;-60
2023/01/28 11:34:56;;;;;;;1.85;1.35;;;12.90;49.00;;;;;;4886218;28;45673;-63
2023/01/28 11:37:22;;;;;;;2.45;1.92;;;12.90;48.90;;;;;;4875010;29;45310;-60
2023/01/28 11:39:47;;;;;;;2.97;1.88;;;12.90;48.90;;;;;;4873232;29;45415;-62
2023/01/28 11:42:20;;;;;;;3.08;1.95;;;12.90;48.90;;;;;;4858861;29;45818;-61
2023/01/28 11:44:47;;;;;;;2.90;1.75;;;12.90;48.90;;;;;;4890239;28;45476;-62
2023/01/28 11:47:31;;;;;;;2.25;1.80;;;12.90;48.90;;;;;;4875480;29;45298;-61
2023/01/28 11:50:06;;;;;;;3.88;1.85;;;12.90;49.00;;;;;;4875257;29;46986;-62
2023/01/28 11:53:13;;;;;;;2.55;1.80;;;12.90;49.00;;;;;;4858489;29;45576;-61
2023/01/28 11:55:54;;;;;;;2.17;1.45;;;12.90;49.00;;;;;;4876991;29;45254;-64
2023/01/28 11:58:36;;;;;;;2.53;1.80;;;12.90;48.90;;;;;;4874742;29;45294;-62
2023/01/28 12:01:12;;;;;;;2.90;1.80;;;12.90;49.00;;;;;;4870726;29;46863;-62
2023/01/28 12:04:02;;;;;;;2.58;1.67;;;12.90;49.00;;;;;;4842788;29;45324;-61
2023/01/28 12:06:39;;;;;;;1.88;1.40;;;12.90;49.00;;;;;;4873947;29;45322;-61
2023/01/28 12:09:28;;;;;;;2.78;1.60;;;12.90;49.00;;;;;;4864604;29;46351;-61
2023/01/28 12:12:13;;;;;;;2.67;1.80;;;12.90;49.00;;;;;;4890194;28;46093;-60
2023/01/28 12:14:53;;;;;;;2.35;1.75;;;12.90;49.10;;;;;;4877659;29;45608;-62
2023/01/28 12:17:27;;;;;;;1.90;1.55;;;12.90;49.00;;;;;;4877660;29;45307;-62
2023/01/28 12:20:30;;;;;;;2.40;1.42;;;12.90;48.90;;;;;;4875953;29;45359;-63
2023/01/28 12:23:09;;;;;;;2.38;1.80;;;12.90;48.90;;;;;;4835652;29;45639;-62
2023/01/28 12:25:40;;;;;;;1.70;1.50;;;12.90;48.90;;;;;;4875142;29;45490;-61
2023/01/28 12:28:29;;;;;;;2.13;1.50;;;12.90;49.00;;;;;;4876572;29;44960;-61
2023/01/28 12:30:59;;;;;;;2.80;1.80;;;12.90;48.90;;;;;;4878378;29;45438;-62
2023/01/28 12:33:32;;;;;;;2.85;1.90;;;12.90;48.90;;;;;;4873044;29;46078;-64
2023/01/28 12:36:01;;;;;;;3.40;1.70;;;12.90;48.90;;;;;;4876860;29;45944;-60
2023/01/28 12:38:38;;;;;;;2.38;1.60;;;12.90;48.90;;;;;;4875264;29;45311;-61
2023/01/28 12:41:13;;;;;;;2.45;1.70;;;12.90;48.90;;;;;;4876384;29;45321;-64
2023/01/28 12:43:59;;;;;;;3.03;1.90;;;12.90;49.00;;;;;;4874814;29;46143;-61
2023/01/28 12:46:51;;;;;;;2.75;1.65;;;12.90;49.00;;;;;;4876904;29;45327;-61
2023/01/28 12:49:29;;;;;;;2.45;1.70;;;12.90;49.00;;;;;;4875849;29;44946;-60
2023/01/28 12:52:04;;;;;;;2.38;1.80;;;12.80;49.00;;;;;;4876441;29;45479;-59
2023/01/28 12:54:43;;;;;;;2.78;1.45;;;12.80;49.00;;;;;;4877292;29;46160;-58
2023/01/28 12:57:13;;;;;;;2.45;1.77;;;12.80;48.90;;;;;;4875019;29;45773;-59
2023/01/28 12:59:44;;;;;;;2.40;1.73;;;12.80;49.00;;;;;;4875547;29;45255;-57
2023/01/28 13:02:13;;;;;;;3.10;2.00;;;12.80;49.00;;;;;;4892082;28;45638;-65
2023/01/28 13:04:53;;;;;;;2.00;1.50;;;12.80;48.90;;;;;;4876916;29;47007;-61
2023/01/28 13:07:36;;;;;;;2.55;1.80;;;12.80;48.90;;;;;;4877106;29;44790;-62
2023/01/28 13:10:16;;;;;;;2.78;1.90;;;12.80;48.90;;;;;;4888126;28;45296;-59
2023/01/28 13:12:42;;;;;;;2.03;1.35;;;12.80;48.90;;;;;;4881459;29;46318;-58
2023/01/28 13:15:15;;;;;;;2.45;1.70;;;12.80;48.90;;;;;;4873262;29;46337;-61
2023/01/28 13:17:53;;;;;;;2.60;1.60;;;12.80;48.90;;;;;;4874761;29;45786;-62
2023/01/28 13:20:34;;;;;;;2.35;1.50;;;12.80;48.90;;;;;;4875334;29;45771;-59
2023/01/28 13:23:00;;;;;;;2.33;1.55;;;12.80;48.90;;;;;;4875311;29;45466;-61
2023/01/28 13:25:29;;;;;;;2.53;1.67;;;12.80;49.00;;;;;;4890599;28;45566;-62
2023/01/28 13:28:04;;;;;;;3.03;1.70;;;12.80;48.90;;;;;;4879034;29;44982;-61
2023/01/28 13:30:35;;;;;;;1.95;1.45;;;12.80;49.00;;;;;;4876006;29;45404;-59
2023/01/28 13:33:02;;;;;;;2.70;1.58;;;12.80;49.00;;;;;;4862779;29;45237;-61
2023/01/28 13:35:30;;;;;;;2.50;1.70;;;12.80;48.90;;;;;;4876097;29;46022;-61
2023/01/28 13:37:56;;;;;;;2.40;1.50;;;12.80;49.00;;;;;;4874460;29;44744;-62
2023/01/28 13:40:26;;;;;;;2.25;1.52;;;12.80;49.00;;;;;;4875604;29;45761;-61
2023/01/28 13:43:00;;;;;;;3.47;1.75;;;12.80;49.00;;;;;;4895590;28;45338;-59
2023/01/28 13:45:26;;;;;;;2.03;1.48;;;12.80;49.00;;;;;;4879730;29;46006;-62
2023/01/28 13:47:57;;;;;;;2.17;1.55;;;12.80;49.00;;;;;;4873922;29;45058;-64
2023/01/28 13:50:24;;;;;;;2.33;1.70;;;12.80;49.00;;;;;;4889155;28;45469;-62
2023/01/28 13:52:58;;;;;;;1.50;1.23;;;12.70;48.90;;;;;;4889124;28;46002;-61
2023/01/28 13:55:26;;;;;;;2.50;1.60;;;12.80;49.00;;;;;;4873896;29;47324;-60
2023/01/28 13:58:04;;;;;;;3.10;1.95;;;12.70;48.90;;;;;;4877496;29;45924;-62
2023/01/28 14:00:44;;;;;;;1.92;1.40;;;12.80;49.10;;;;;;4875931;29;45995;-62
2023/01/28 14:03:36;;;;;;;2.17;1.63;;;12.80;49.00;;;;;;4893302;28;45131;-61
2023/01/28 14:06:53;;;;;;;2.08;1.45;;;12.80;49.00;;;;;;4884665;28;46494;-61
2023/01/28 14:09:40;;;;;;;1.55;1.13;;;12.70;49.00;;;;;;4884249;28;45938;-62
2023/01/28 14:12:05;;;;;;;2.15;1.40;;;12.70;48.90;;;;;;4897822;28;45012;-62
2023/01/28 14:14:59;;;;;;;2.00;1.40;;;12.80;49.00;;;;;;4897777;28;44681;-62
2023/01/28 14:17:24;;;;;;;;;;;12.70;49.00;;;;;;4895326;28;46806;-62
2023/01/28 14:19:50;;;;;;;1.40;1.17;;;12.70;49.10;;;;;;4893054;28;45659;-62
2023/01/28 14:22:18;;;;;;;2.47;1.50;;;12.70;49.00;;;;;;4866799;29;45345;-62
2023/01/28 14:24:43;;;;;;;2.90;1.55;;;12.70;49.00;;;;;;4878474;29;46103;-61
2023/01/28 14:27:15;;;;;;;2.28;1.48;;;12.70;49.00;;;;;;4881735;28;47110;-59
2023/01/28 14:29:46;;;;;;;2.45;1.55;;;12.70;49.00;;;;;;4891866;28;45291;-63
2023/01/28 14:32:16;;;;;;;1.80;1.45;;;12.70;49.00;;;;;;4897288;28;45223;-60
2023/01/28 14:34:42;;;;;;;2.35;1.30;;;12.70;49.00;;;;;;4881342;28;45307;-63
2023/01/28 14:37:10;;;;;;;2.10;1.65;;;12.70;49.10;;;;;;4866989;28;45575;-62
2023/01/28 14:39:45;;;;;;;2.33;1.58;;;12.70;49.00;;;;;;4880197;29;45236;-62
2023/01/28 14:42:34;;;;;;;1.90;1.30;;;12.70;49.00;;;;;;4884222;28;45278;-61
2023/01/28 14:45:30;;;;;;;2.50;1.50;;;12.70;49.00;;;;;;4866551;28;45381;-62
2023/01/28 14:47:58;;;;;;;2.17;1.45;;;12.70;49.10;;;;;;4891712;28;45635;-60
2023/01/28 14:50:36;;;;;;;1.63;1.30;;;12.70;49.10;;;;;;4890806;28;45024;-60
2023/01/28 14:53:22;;;;;;;2.40;1.70;;;12.70;49.10;;;;;;4877114;28;45508;-62
2023/01/28 14:56:25;;;;;;;2.35;1.30;;;12.70;49.10;;;;;;4891313;28;45287;-59
2023/01/28 14:59:06;;;;;;;2.10;1.60;;;12.70;49.10;;;;;;4891728;28;46044;-59
2023/01/28 15:01:32;;;;;;;2.53;1.50;;;12.60;49.10;;;;;;4890663;28;44669;-59
2023/01/28 15:03:58;;;;;;;2.42;1.75;;;12.60;49.10;;;;;;4887707;28;44735;-59
2023/01/28 15:06:24;;;;;;;2.08;1.45;;;12.60;49.00;;;;;;4884834;28;45053;-57
2023/01/28 15:08:56;;;;;;;2.15;1.17;;;12.60;49.00;;;;;;4872922;29;45188;-61
2023/01/28 15:11:23;;;;;;;1.95;1.48;;;12.60;49.10;;;;;;4877701;29;45874;-62
2023/01/28 15:13:51;;;;;;;2.00;1.55;;;12.60;49.10;;;;;;4875469;29;44774;-63
2023/01/28 15:16:19;;;;;;;1.75;1.40;;;12.60;49.10;;;;;;4858477;29;45337;-61
2023/01/28 15:18:44;;;;;;;2.80;1.88;;;12.60;49.10;;;;;;4869937;29;45396;-62
2023/01/28 15:21:10;;;;;;;2.08;1.67;;;12.60;49.10;;;;;;4873441;29;45218;-61
2023/01/28 15:23:38;;;;;;;2.10;1.30;;;12.60;49.10;;;;;;4873796;29;45457;-64
2023/01/28 15:26:14;;;;;;;2.40;1.48;;;12.60;49.10;;;;;;4871427;29;45412;-62
2023/01/28 15:28:41;;;;;;;2.25;1.38;;;12.60;49.10;;;;;;4884384;28;45452;-61
2023/01/28 15:31:15;;;;;;;1.88;1.33;;;12.60;49.10;;;;;;4856287;29;45156;-61
2023/01/28 15:33:40;;;;;;;1.35;1.23;;;12.60;49.10;;;;;;4861419;29;45295;-61
2023/01/28 15:36:06;;;;;;;1.88;1.38;;;12.60;49.10;;;;;;4873731;29;45573;-61
2023/01/28 15:38:31;;;;;;;1.77;1.52;;;12.60;49.00;;;;;;4873164;29;45942;-62
2023/01/28 15:40:59;;;;;;;1.88;1.38;;;12.60;49.00;;;;;;4874901;29;45383;-62
2023/01/28 15:43:35;;;;;;;2.05;1.40;;;12.60;49.10;;;;;;4878297;29;46116;-61
2023/01/28 15:46:00;;;;;;;1.85;1.42;;;12.60;49.10;;;;;;4859369;29;45864;-61
2023/01/28 15:48:32;;;;;;;2.08;1.50;;;12.60;49.20;;;;;;4875093;29;45604;-61
2023/01/28 15:51:05;;;;;;;1.75;1.30;;;12.60;49.10;;;;;;4893374;28;45361;-62
2023/01/28 15:53:40;;;;;;;1.67;1.35;;;12.50;49.00;;;;;;4889688;28;45475;-61
2023/01/28 15:56:12;;;;;;;1.45;1.35;;;12.60;49.20;;;;;;4890161;28;45069;-63
2023/01/28 15:58:40;;;;;;;2.10;1.63;;;12.50;49.10;;;;;;4874549;29;46101;-62
2023/01/28 16:01:09;;;;;;;1.73;1.30;;;12.50;49.10;;;;;;4872583;29;45523;-62
2023/01/28 16:03:38;;;;;;;2.25;1.38;;;12.50;49.10;;;;;;4878275;29;45612;-60
2023/01/28 16:06:05;;;;;;;1.83;1.40;;;12.50;49.10;;;;;;4875354;29;45569;-61
2023/01/28 16:08:38;;;;;;;1.77;1.20;;;12.50;49.10;;;;;;4876597;29;45118;-58
2023/01/28 16:11:04;;;;;;;2.53;1.45;;;12.50;49.10;;;;;;4874362;29;45383;-61
2023/01/28 16:13:32;;;;;;;1.98;1.52;;;12.50;49.20;;;;;;4892117;28;45020;-61
2023/01/28 16:15:58;;;;;;;1.83;1.25;;;12.50;49.10;;;;;;4877621;29;45550;-60
2023/01/28 16:18:30;;;;;;;2.92;1.65;;;12.50;49.10;;;;;;4858442;29;46301;-62
2023/01/28 16:20:57;;;;;;;2.85;1.40;;;12.50;49.10;;;;;;4891588;28;45013;-61
2023/01/28 16:23:24;;;;;;;1.65;1.33;;;12.50;49.10;;;;;;4861323;29;45568;-59
2023/01/28 16:26:24;;;;;;;1.80;1.25;;;12.50;49.20;;;;;;4892334;28;46125;-59
2023/01/28 16:28:49;;;;;;;2.38;1.40;;;12.50;49.20;;;;;;4867802;29;46196;-61
2023/01/28 16:31:15;;;;;;;2.08;1.23;;;12.50;49.20;;;;;;4874648;29;45279;-60
2023/01/28 16:33:40;;;;;;;1.90;1.30;;;12.50;49.10;;;;;;4890441;28;44946;-61
2023/01/28 16:36:12;;;;;;;2.55;1.50;;;12.50;49.10;;;;;;4874744;29;45284;-61
2023/01/28 16:38:38;;;;;;;3.53;1.70;;;12.50;49.10;;;;;;4881362;29;46307;-63
2023/01/28 16:41:03;;;;;;;2.40;1.45;;;12.50;49.10;;;;;;4886274;28;45601;-61
2023/01/28 16:43:29;;;;;;;2.42;1.50;;;12.40;49.10;;;;;;4875092;29;45559;-62
2023/01/28 16:45:55;;;;;;;1.95;1.27;;;12.40;49.10;;;;;;4876351;29;44824;-59
2023/01/28 16:48:21;;;;;;;2.08;1.42;;;12.50;49.10;;;;;;4875896;29;45734;-62
2023/01/28 16:50:46;;;;;;;2.25;1.40;;;12.50;49.20;;;;;;4876726;29;44907;-60
2023/01/28 16:53:20;;;;;;;2.63;1.75;;;12.40;49.20;;;;;;4875493;29;45272;-60
2023/01/28 16:55:47;;;;;;;3.05;1.85;;;12.40;49.20;;;;;;4862042;29;45146;-57
2023/01/28 16:58:13;;;;;;;2.45;1.50;;;12.40;49.20;;;;;;4873697;29;46128;-60
2023/01/28 17:00:38;;;;;;;2.67;1.55;;;12.40;49.20;;;;;;4886177;28;45135;-59
2023/01/28 17:03:04;;;;;;;2.05;1.40;;;12.40;49.20;;;;;;4874644;29;45431;-61